createdAt,value
2019-02-28T00:01:13.177Z,90.20
2019-02-28T00:03:40.412Z,89.70
2019-02-28T00:06:11.804Z,89.70
2019-02-28T00:08:36.883Z,90.40
2019-02-28T00:11:05.107Z,90.60
2019-02-28T00:13:33.361Z,90.50
2019-02-28T00:16:03.236Z,90.50
2019-02-28T00:18:29.721Z,90.50
2019-02-28T00:20:57.046Z,90.20
2019-02-28T00:23:24.284Z,90.20
2019-02-28T00:25:51.528Z,90.30
2019-02-28T00:28:18.741Z,90.60
2019-02-28T00:30:45.977Z,90.50
2019-02-28T00:33:13.222Z,90.70
2019-02-28T00:35:40.490Z,90.70
2019-02-28T00:38:07.725Z,90.40
2019-02-28T00:40:34.939Z,91.10
2019-02-28T00:43:02.181Z,91.10
2019-02-28T00:45:29.504Z,91.00
2019-02-28T00:47:56.742Z,90.90
2019-02-28T00:50:23.985Z,90.90
2019-02-28T00:52:51.236Z,91.00
2019-02-28T00:55:18.448Z,91.10
2019-02-28T00:57:45.673Z,91.00
2019-02-28T01:00:13.838Z,91.10
2019-02-28T01:02:41.074Z,91.40
2019-02-28T01:05:08.526Z,91.10
2019-02-28T01:07:35.768Z,91.20
2019-02-28T01:10:05.670Z,91.20
2019-02-28T01:12:32.901Z,91.30
2019-02-28T01:15:00.312Z,91.20
2019-02-28T01:17:27.780Z,91.20
2019-02-28T01:19:55.030Z,91.40
2019-02-28T01:22:22.286Z,91.10
2019-02-28T01:24:49.525Z,91.30
2019-02-28T01:27:17.358Z,91.50
2019-02-28T01:29:45.885Z,91.50
2019-02-28T01:32:15.336Z,91.60
2019-02-28T01:34:42.299Z,91.30
2019-02-28T01:37:09.554Z,91.50
2019-02-28T01:39:36.767Z,91.00
2019-02-28T01:42:03.991Z,91.20
2019-02-28T01:44:35.543Z,91.10
2019-02-28T01:47:00.345Z,91.10
2019-02-28T01:49:27.597Z,91.20
2019-02-28T01:51:54.934Z,92.00
2019-02-28T01:54:22.158Z,91.90
2019-02-28T01:56:49.409Z,92.10
2019-02-28T01:59:16.642Z,92.10
2019-02-28T02:01:43.877Z,92.00
2019-02-28T02:04:12.559Z,91.90
2019-02-28T02:06:40.305Z,92.00
2019-02-28T02:09:08.113Z,91.70
2019-02-28T02:11:36.780Z,91.60
2019-02-28T02:14:04.009Z,91.70
2019-02-28T02:16:32.268Z,91.70
2019-02-28T02:19:01.409Z,91.70
2019-02-28T02:21:31.482Z,91.60
2019-02-28T02:23:57.769Z,91.80
2019-02-28T02:26:25.009Z,92.00
2019-02-28T02:28:52.342Z,92.20
2019-02-28T02:31:19.570Z,92.30
2019-02-28T02:33:50.876Z,92.60
2019-02-28T02:36:17.590Z,92.50
2019-02-28T02:38:44.993Z,92.60
2019-02-28T02:41:12.218Z,92.30
2019-02-28T02:43:39.458Z,92.40
2019-02-28T02:46:06.664Z,92.30
2019-02-28T02:48:33.893Z,92.40
2019-02-28T02:51:01.139Z,92.70
2019-02-28T02:53:28.377Z,92.50
2019-02-28T02:55:55.607Z,92.60
2019-02-28T02:58:26.755Z,92.50
2019-02-28T03:00:52.071Z,92.40
2019-02-28T03:03:19.624Z,92.40
2019-02-28T03:05:46.841Z,92.20
2019-02-28T03:08:14.063Z,91.90
2019-02-28T03:10:41.297Z,91.80
2019-02-28T03:13:08.747Z,91.70
2019-02-28T03:15:36.165Z,91.60
2019-02-28T03:18:03.505Z,91.70
2019-02-28T03:20:30.728Z,91.40
2019-02-28T03:23:02.278Z,91.10
2019-02-28T03:25:28.330Z,91.30
2019-02-28T03:27:56.810Z,91.20
2019-02-28T03:30:31.895Z,91.10
2019-02-28T03:32:53.356Z,90.90
2019-02-28T03:35:20.788Z,90.70
2019-02-28T03:37:49.030Z,90.80
2019-02-28T03:40:16.554Z,90.80
2019-02-28T03:42:43.820Z,90.60
2019-02-28T03:45:11.344Z,90.50
2019-02-28T03:47:38.726Z,90.70
2019-02-28T03:50:06.234Z,90.40
2019-02-28T03:52:33.479Z,90.60
2019-02-28T03:55:03.202Z,90.30
2019-02-28T03:57:29.963Z,90.40
2019-02-28T03:59:57.205Z,90.10
2019-02-28T04:02:24.638Z,90.10
2019-02-28T04:04:52.060Z,90.40
2019-02-28T04:07:19.299Z,90.50
2019-02-28T04:09:46.645Z,90.50
2019-02-28T04:12:13.867Z,90.90
2019-02-28T04:14:41.386Z,90.90
2019-02-28T04:17:08.618Z,91.00
2019-02-28T04:19:35.841Z,90.70
2019-02-28T04:22:03.080Z,90.70
2019-02-28T04:24:30.465Z,91.40
2019-02-28T04:26:57.801Z,91.70
2019-02-28T04:29:30.096Z,91.80
2019-02-28T04:31:54.157Z,91.90
2019-02-28T04:34:21.378Z,91.20
2019-02-28T04:36:48.650Z,90.80
2019-02-28T04:39:16.890Z,90.90
2019-02-28T04:41:44.174Z,90.80
2019-02-28T04:44:11.386Z,90.70
2019-02-28T04:46:38.641Z,91.00
2019-02-28T04:49:05.863Z,91.20
2019-02-28T04:51:33.111Z,91.30
2019-02-28T04:54:00.363Z,91.30
2019-02-28T04:56:27.615Z,91.50
2019-02-28T04:58:56.492Z,91.80
2019-02-28T05:01:24.029Z,92.20
2019-02-28T05:03:52.689Z,91.80
2019-02-28T05:06:21.212Z,91.20
2019-02-28T05:08:49.267Z,91.20
2019-02-28T05:11:16.612Z,91.10
2019-02-28T05:13:48.520Z,91.10
2019-02-28T05:16:13.195Z,91.20
2019-02-28T05:18:40.517Z,91.40
2019-02-28T05:21:07.755Z,91.30
2019-02-28T05:23:36.047Z,91.60
2019-02-28T05:26:04.097Z,92.20
2019-02-28T05:28:31.307Z,91.80
2019-02-28T05:30:58.579Z,92.20
2019-02-28T05:33:25.812Z,92.20
2019-02-28T05:35:53.224Z,92.70
2019-02-28T05:38:21.129Z,92.60
2019-02-28T05:40:50.682Z,92.90
2019-02-28T05:43:17.913Z,93.10
2019-02-28T05:45:48.715Z,93.50
2019-02-28T05:48:14.339Z,93.60
2019-02-28T05:50:41.557Z,92.80
2019-02-28T05:53:10.027Z,92.90
2019-02-28T05:55:37.657Z,93.30
2019-02-28T05:58:04.926Z,93.10
2019-02-28T06:00:33.450Z,93.00
2019-02-28T06:03:02.640Z,93.10
2019-02-28T06:05:30.042Z,93.10
2019-02-28T06:07:57.346Z,93.40
2019-02-28T06:10:24.882Z,94.40
2019-02-28T06:12:52.309Z,94.50
2019-02-28T06:15:19.531Z,94.20
2019-02-28T06:17:46.761Z,94.40
2019-02-28T06:20:16.442Z,94.40
2019-02-28T06:22:43.198Z,94.30
2019-02-28T06:25:10.471Z,94.00
2019-02-28T06:27:41.551Z,93.80
2019-02-28T06:30:08.732Z,94.00
2019-02-28T06:32:36.589Z,94.60
2019-02-28T06:35:04.057Z,94.70
2019-02-28T06:37:31.282Z,94.60
2019-02-28T06:39:59.316Z,94.90
2019-02-28T06:42:27.508Z,95.00
2019-02-28T06:44:54.821Z,94.70
2019-02-28T06:47:22.039Z,94.00
2019-02-28T06:49:49.246Z,93.60
2019-02-28T06:52:17.708Z,93.80
2019-02-28T06:54:44.958Z,92.00
2019-02-28T06:57:12.166Z,91.50
2019-02-28T06:59:39.769Z,91.00
2019-02-28T07:02:08.832Z,90.60
2019-02-28T07:04:36.406Z,88.60
2019-02-28T07:07:03.689Z,88.00
2019-02-28T07:09:33.547Z,86.50
2019-02-28T07:12:00.208Z,84.10
2019-02-28T07:14:27.484Z,84.10
2019-02-28T07:16:54.716Z,82.80
2019-02-28T07:19:21.961Z,81.90
2019-02-28T07:21:49.198Z,82.60
2019-02-28T07:24:16.425Z,82.30
2019-02-28T07:26:43.733Z,83.00
2019-02-28T07:29:11.945Z,83.30
2019-02-28T07:31:39.490Z,82.10
2019-02-28T07:34:06.720Z,80.70
2019-02-28T07:36:33.961Z,79.30
2019-02-28T07:39:04.255Z,78.40
2019-02-28T07:41:30.328Z,77.50
2019-02-28T07:43:59.042Z,77.20
2019-02-28T07:46:26.450Z,77.80
2019-02-28T07:48:53.661Z,76.30
2019-02-28T07:51:22.713Z,76.80
2019-02-28T07:53:50.225Z,75.50
2019-02-28T07:56:17.453Z,73.80
2019-02-28T07:58:44.661Z,74.70
2019-02-28T08:01:11.905Z,72.50
2019-02-28T08:03:39.118Z,72.70
2019-02-28T08:06:06.348Z,70.80
2019-02-28T08:08:33.568Z,71.30
2019-02-28T08:11:01.258Z,70.30
2019-02-28T08:13:28.505Z,68.80
2019-02-28T08:15:56.858Z,68.20
2019-02-28T08:18:25.055Z,66.90
2019-02-28T08:20:52.398Z,66.20
2019-02-28T08:23:19.631Z,67.50
2019-02-28T08:25:46.871Z,65.90
2019-02-28T08:28:14.171Z,66.30
2019-02-28T08:30:41.395Z,67.00
2019-02-28T08:33:08.647Z,63.90
2019-02-28T08:35:35.981Z,64.40
2019-02-28T08:38:03.603Z,63.90
2019-02-28T08:40:30.820Z,62.70
2019-02-28T08:42:58.053Z,61.20
2019-02-28T08:45:26.345Z,62.10
2019-02-28T08:47:56.710Z,61.90
2019-02-28T08:50:23.682Z,61.80
2019-02-28T08:52:51.226Z,60.10
2019-02-28T08:55:27.871Z,61.80
2019-02-28T08:57:54.424Z,62.00
2019-02-28T09:00:18.254Z,60.60
2019-02-28T09:02:45.495Z,60.70
2019-02-28T09:05:13.449Z,61.30
2019-02-28T09:07:40.854Z,61.70
2019-02-28T09:10:12.628Z,59.20
2019-02-28T09:12:39.105Z,59.70
2019-02-28T09:15:07.562Z,57.90
2019-02-28T09:17:34.802Z,57.60
2019-02-28T09:20:02.154Z,58.10
2019-02-28T09:22:29.493Z,55.80
2019-02-28T09:24:56.699Z,56.70
2019-02-28T09:27:24.078Z,56.30
2019-02-28T09:29:54.496Z,54.90
2019-02-28T09:32:20.526Z,54.20
2019-02-28T09:34:47.768Z,55.40
2019-02-28T09:37:15.006Z,53.50
2019-02-28T09:39:42.209Z,54.90
2019-02-28T09:42:14.821Z,53.70
2019-02-28T09:44:38.566Z,52.90
2019-02-28T09:47:05.850Z,52.90
2019-02-28T09:49:33.102Z,52.00
2019-02-28T09:52:03.292Z,51.40
2019-02-28T09:54:29.438Z,51.60
2019-02-28T09:56:56.664Z,50.90
2019-02-28T09:59:23.882Z,50.90
2019-02-28T10:01:51.123Z,52.60
2019-02-28T10:04:18.365Z,52.00
2019-02-28T10:06:48.502Z,51.70
2019-02-28T10:09:17.046Z,52.10
2019-02-28T10:11:43.966Z,52.20
2019-02-28T10:14:12.239Z,52.80
2019-02-28T10:16:39.638Z,51.70
2019-02-28T10:19:06.882Z,51.30
2019-02-28T10:21:36.460Z,52.00
2019-02-28T10:24:03.237Z,52.10
2019-02-28T10:26:30.493Z,50.30
2019-02-28T10:28:57.706Z,51.10
2019-02-28T10:31:35.207Z,52.30
2019-02-28T10:33:54.454Z,50.20
2019-02-28T10:36:21.677Z,51.70
2019-02-28T10:38:48.886Z,50.80
2019-02-28T10:41:16.120Z,52.10
2019-02-28T10:43:43.340Z,51.40
2019-02-28T10:46:13.403Z,50.80
2019-02-28T10:48:50.489Z,50.90
2019-02-28T10:51:13.956Z,51.60
2019-02-28T10:53:39.372Z,52.70
2019-02-28T10:56:07.597Z,52.10
2019-02-28T10:58:34.932Z,51.20
2019-02-28T11:01:07.563Z,50.90
2019-02-28T11:03:32.331Z,51.80
2019-02-28T11:06:00.466Z,51.40
2019-02-28T11:08:27.786Z,51.00
2019-02-28T11:10:55.018Z,50.30
2019-02-28T11:13:22.261Z,50.70
2019-02-28T11:15:49.919Z,51.50
2019-02-28T11:18:17.488Z,50.70
2019-02-28T11:20:44.845Z,49.50
2019-02-28T11:23:15.061Z,49.80
2019-02-28T11:25:41.734Z,49.50
2019-02-28T11:28:09.191Z,49.90
2019-02-28T11:30:36.429Z,49.70
2019-02-28T11:33:04.757Z,49.80
2019-02-28T11:35:32.822Z,50.40
2019-02-28T11:38:00.149Z,50.00
2019-02-28T11:40:28.661Z,50.60
2019-02-28T11:42:59.459Z,51.00
2019-02-28T11:45:26.337Z,51.40
2019-02-28T11:47:55.449Z,50.60
2019-02-28T11:50:22.693Z,50.90
2019-02-28T11:52:49.932Z,50.40
2019-02-28T11:55:20.324Z,49.00
2019-02-28T11:57:46.378Z,50.80
2019-02-28T12:00:16.886Z,50.60
2019-02-28T12:02:52.847Z,50.50
2019-02-28T12:05:15.776Z,50.50
2019-02-28T12:07:42.435Z,51.40
2019-02-28T12:10:10.103Z,50.80
2019-02-28T12:12:37.565Z,51.70
2019-02-28T12:15:06.798Z,52.10
2019-02-28T12:17:34.090Z,51.60
2019-02-28T12:20:03.687Z,52.60
2019-02-28T12:22:30.592Z,53.40
2019-02-28T12:24:57.814Z,51.90
2019-02-28T12:27:27.413Z,52.80
2019-02-28T12:29:54.175Z,52.40
2019-02-28T12:32:21.391Z,53.40
2019-02-28T12:34:48.737Z,53.50
2019-02-28T12:37:15.990Z,51.90
2019-02-28T12:39:43.207Z,52.40
2019-02-28T12:42:10.486Z,51.40
2019-02-28T12:44:37.705Z,50.80
2019-02-28T12:47:06.489Z,51.90
2019-02-28T12:49:34.378Z,50.20
2019-02-28T12:52:02.639Z,48.90
2019-02-28T12:54:30.359Z,49.40
2019-02-28T12:56:59.010Z,49.10
2019-02-28T12:59:26.238Z,50.00
2019-02-28T13:01:53.490Z,48.00
2019-02-28T13:04:20.990Z,48.50
2019-02-28T13:06:48.335Z,48.70
2019-02-28T13:09:16.969Z,48.00
2019-02-28T13:11:44.862Z,49.40
2019-02-28T13:14:12.095Z,49.50
2019-02-28T13:16:39.327Z,49.70
2019-02-28T13:19:06.848Z,50.30
2019-02-28T13:21:34.141Z,50.40
2019-02-28T13:24:01.480Z,50.40
2019-02-28T13:26:30.578Z,49.60
2019-02-28T13:28:58.126Z,49.30
2019-02-28T13:31:26.947Z,50.30
2019-02-28T13:33:54.531Z,49.80
2019-02-28T13:36:23.397Z,50.50
2019-02-28T13:38:54.867Z,50.90
2019-02-28T13:41:22.323Z,51.60
2019-02-28T13:43:49.169Z,51.10
2019-02-28T13:46:16.414Z,51.50
2019-02-28T13:48:43.674Z,51.40
2019-02-28T13:51:11.256Z,51.60
2019-02-28T13:53:38.517Z,51.50
2019-02-28T13:56:05.762Z,51.70
2019-02-28T13:58:32.973Z,52.40
2019-02-28T14:01:00.293Z,51.70
2019-02-28T14:03:27.535Z,52.10
2019-02-28T14:05:54.784Z,51.40
2019-02-28T14:08:22.161Z,50.60
2019-02-28T14:10:50.130Z,51.50
2019-02-28T14:13:17.342Z,51.40
2019-02-28T14:15:48.144Z,50.40
2019-02-28T14:18:13.838Z,50.70
2019-02-28T14:20:41.074Z,51.20
2019-02-28T14:23:08.750Z,51.50
2019-02-28T14:25:36.350Z,50.60
2019-02-28T14:28:05.406Z,51.00
2019-02-28T14:30:32.641Z,51.10
2019-02-28T14:32:59.881Z,50.90
2019-02-28T14:35:27.676Z,51.00
2019-02-28T14:37:55.865Z,50.70
2019-02-28T14:40:24.055Z,51.40
2019-02-28T14:42:51.276Z,51.40
2019-02-28T14:45:19.154Z,52.20
2019-02-28T14:47:56.240Z,51.80
2019-02-28T14:50:18.929Z,51.80
2019-02-28T14:52:44.946Z,52.30
2019-02-28T14:55:14.306Z,53.20
2019-02-28T14:57:41.524Z,53.90
2019-02-28T15:00:14.526Z,53.80
2019-02-28T15:02:41.750Z,52.70
2019-02-28T15:05:09.649Z,53.50
2019-02-28T15:07:38.501Z,53.40
2019-02-28T15:10:08.650Z,53.80
2019-02-28T15:12:35.878Z,53.90
2019-02-28T15:15:04.607Z,53.60
2019-02-28T15:17:31.829Z,54.00
2019-02-28T15:19:59.067Z,53.80
2019-02-28T15:22:26.299Z,54.10
2019-02-28T15:24:53.510Z,53.90
2019-02-28T15:27:20.740Z,54.20
2019-02-28T15:29:47.958Z,54.10
2019-02-28T15:32:17.191Z,54.30
2019-02-28T15:34:44.410Z,54.60
2019-02-28T15:37:11.663Z,54.70
2019-02-28T15:39:38.868Z,55.10
2019-02-28T15:42:08.197Z,55.10
2019-02-28T15:44:35.419Z,55.30
2019-02-28T15:47:02.750Z,55.50
2019-02-28T15:49:29.969Z,55.90
2019-02-28T15:51:57.202Z,55.80
2019-02-28T15:54:25.296Z,56.30
2019-02-28T15:56:55.399Z,56.50
2019-02-28T15:59:23.781Z,56.90
2019-02-28T16:01:51.006Z,56.60
2019-02-28T16:04:18.255Z,57.70
2019-02-28T16:06:45.767Z,56.90
2019-02-28T16:09:14.974Z,56.60
2019-02-28T16:11:42.197Z,56.50
2019-02-28T16:14:14.512Z,55.70
2019-02-28T16:16:38.586Z,55.90
2019-02-28T16:19:05.826Z,56.10
2019-02-28T16:21:33.080Z,56.00
2019-02-28T16:24:01.990Z,55.60
2019-02-28T16:26:29.522Z,55.70
2019-02-28T16:28:56.754Z,56.10
2019-02-28T16:31:24.098Z,55.80
2019-02-28T16:33:51.937Z,56.00
2019-02-28T16:36:22.241Z,56.90
2019-02-28T16:38:48.546Z,56.90
2019-02-28T16:41:15.779Z,57.70
2019-02-28T16:43:43.103Z,57.70
2019-02-28T16:46:12.442Z,57.30
2019-02-28T16:48:39.583Z,57.10
2019-02-28T16:51:06.826Z,57.30
2019-02-28T16:53:34.034Z,57.70
2019-02-28T16:56:02.653Z,57.80
2019-02-28T16:58:31.459Z,57.50
2019-02-28T17:00:58.717Z,57.50
2019-02-28T17:03:26.054Z,57.40
2019-02-28T17:05:53.289Z,57.70
2019-02-28T17:08:20.656Z,58.00
2019-02-28T17:10:47.914Z,58.00
2019-02-28T17:13:49.995Z,57.50
2019-02-28T17:16:54.779Z,57.50
2019-02-28T17:19:22.402Z,57.70
2019-02-28T17:21:52.310Z,58.00
2019-02-28T17:24:18.734Z,58.10
2019-02-28T17:27:07.311Z,58.10
2019-02-28T17:29:57.589Z,58.10
2019-02-28T17:32:28.122Z,58.10
2019-02-28T17:34:58.998Z,58.10
2019-02-28T17:37:26.619Z,58.40
2019-02-28T17:39:54.177Z,58.30
2019-02-28T17:42:21.504Z,58.30
2019-02-28T17:45:03.178Z,58.50
2019-02-28T17:48:00.002Z,58.60
2019-02-28T17:50:50.918Z,58.80
2019-02-28T17:54:02.027Z,59.10
2019-02-28T17:56:53.494Z,59.90
2019-02-28T17:59:55.727Z,59.60
2019-02-28T18:03:01.750Z,59.70
2019-02-28T18:06:08.751Z,59.60
2019-02-28T18:09:04.835Z,59.70
2019-02-28T18:12:28.710Z,60.00
2019-02-28T18:15:13.149Z,59.80
2019-02-28T18:17:53.933Z,59.80
2019-02-28T18:20:47.498Z,59.70
2019-02-28T18:24:00.228Z,59.60
2019-02-28T18:27:14.810Z,59.90
2019-02-28T18:30:54.489Z,60.20
2019-02-28T18:33:21.781Z,60.90
2019-02-28T18:35:49.112Z,61.00
2019-02-28T18:38:16.334Z,60.90
2019-02-28T18:40:43.718Z,60.80
2019-02-28T18:43:10.934Z,60.90
2019-02-28T18:45:38.175Z,60.80
2019-02-28T18:48:05.522Z,60.60
2019-02-28T18:50:32.763Z,60.80
2019-02-28T18:53:00.030Z,60.60
2019-02-28T18:55:34.652Z,61.20
2019-02-28T18:57:56.415Z,61.20
2019-02-28T19:00:24.700Z,61.90
2019-02-28T19:02:51.934Z,61.90
2019-02-28T19:05:19.277Z,61.60
2019-02-28T19:07:46.594Z,61.90
2019-02-28T19:10:13.998Z,62.60
2019-02-28T19:12:41.234Z,62.20
2019-02-28T19:15:08.515Z,62.50
2019-02-28T19:17:35.750Z,62.50
2019-02-28T19:20:03.230Z,62.70
2019-02-28T19:22:30.478Z,62.10
2019-02-28T19:24:57.703Z,62.40
2019-02-28T19:27:24.943Z,62.20
2019-02-28T19:29:52.186Z,62.30
2019-02-28T19:32:19.545Z,62.70
2019-02-28T19:34:46.762Z,62.50
2019-02-28T19:37:14.112Z,61.90
2019-02-28T19:39:41.427Z,62.00
2019-02-28T19:42:08.672Z,62.20
2019-02-28T19:44:36.026Z,62.20
2019-02-28T19:47:03.267Z,62.00
2019-02-28T19:49:30.488Z,62.30
2019-02-28T19:51:57.750Z,62.90
2019-02-28T19:54:24.985Z,62.70
2019-02-28T19:56:52.313Z,62.60
2019-02-28T19:59:19.713Z,62.70
2019-02-28T20:01:47.074Z,62.70
2019-02-28T20:04:15.528Z,62.70
2019-02-28T20:06:42.954Z,62.50
2019-02-28T20:09:10.204Z,62.40
2019-02-28T20:11:37.420Z,62.30
2019-02-28T20:14:04.649Z,62.50
2019-02-28T20:16:32.006Z,62.60
2019-02-28T20:18:59.358Z,62.30
2019-02-28T20:21:26.710Z,62.50
2019-02-28T20:23:53.964Z,62.70
2019-02-28T20:26:21.274Z,62.70
2019-02-28T20:28:48.502Z,62.50
2019-02-28T20:31:16.045Z,62.20
2019-02-28T20:33:43.307Z,63.20
2019-02-28T20:36:10.647Z,63.60
2019-02-28T20:38:38.045Z,63.70
2019-02-28T20:41:05.443Z,64.40
2019-02-28T20:43:32.695Z,64.00
2019-02-28T20:46:00.049Z,64.30
2019-02-28T20:48:27.413Z,64.40
2019-02-28T20:50:54.656Z,64.60
2019-02-28T20:53:22.031Z,65.00
2019-02-28T20:55:49.250Z,65.80
2019-02-28T20:58:16.670Z,65.10
2019-02-28T21:00:44.021Z,65.20
2019-02-28T21:03:11.378Z,65.70
2019-02-28T21:05:38.714Z,66.30
2019-02-28T21:08:06.180Z,66.20
2019-02-28T21:10:33.493Z,66.20
2019-02-28T21:13:13.656Z,66.30
2019-02-28T21:15:40.882Z,66.00
2019-02-28T21:18:08.106Z,66.50
2019-02-28T21:20:35.342Z,66.60
2019-02-28T21:23:02.562Z,66.70
2019-02-28T21:25:29.803Z,67.00
2019-02-28T21:27:57.042Z,66.70
2019-02-28T21:30:24.304Z,66.80
2019-02-28T21:32:51.592Z,67.10
2019-02-28T21:35:19.465Z,67.20
2019-02-28T21:37:47.006Z,67.70
2019-02-28T21:40:14.826Z,67.90
2019-02-28T21:42:42.066Z,67.80
2019-02-28T21:45:10.794Z,68.10
2019-02-28T21:47:38.048Z,68.30
2019-02-28T21:50:07.207Z,68.40
2019-02-28T21:52:34.435Z,68.40
2019-02-28T21:55:01.806Z,68.60
2019-02-28T21:57:29.041Z,68.60
2019-02-28T21:59:56.274Z,68.70
2019-02-28T22:02:43.373Z,69.30
2019-02-28T22:05:11.618Z,68.70
2019-02-28T22:07:38.866Z,68.70
2019-02-28T22:10:07.353Z,68.80
2019-02-28T22:12:34.569Z,68.70
2019-02-28T22:15:01.911Z,68.70
2019-02-28T22:17:29.161Z,69.10
2019-02-28T22:19:56.382Z,69.20
2019-02-28T22:22:23.826Z,69.90
2019-02-28T22:24:51.058Z,72.80
2019-02-28T22:27:18.327Z,75.40
2019-02-28T22:29:45.557Z,76.60
2019-02-28T22:32:24.396Z,77.90
2019-02-28T22:35:02.933Z,79.20
2019-02-28T22:37:30.306Z,80.80
2019-02-28T22:39:57.926Z,83.40
2019-02-28T22:42:25.453Z,86.20
2019-02-28T22:44:52.717Z,90.50
2019-02-28T22:47:20.112Z,93.20
2019-02-28T22:49:47.479Z,94.40
2019-02-28T22:52:14.795Z,96.10
2019-02-28T22:54:42.210Z,96.90
2019-02-28T22:57:09.586Z,97.70
2019-02-28T22:59:36.834Z,97.90
2019-02-28T23:02:04.291Z,98.30
2019-02-28T23:04:31.677Z,98.20
2019-02-28T23:06:58.940Z,98.30
2019-02-28T23:09:26.216Z,98.40
2019-02-28T23:11:53.471Z,98.50
2019-02-28T23:14:20.834Z,98.40
2019-02-28T23:16:48.143Z,98.60
2019-02-28T23:19:17.194Z,98.80
2019-02-28T23:21:44.420Z,98.90
2019-02-28T23:24:11.666Z,99.00
2019-02-28T23:27:10.335Z,99.20
2019-02-28T23:29:39.510Z,99.30
2019-02-28T23:32:31.414Z,99.60
2019-02-28T23:34:58.764Z,99.70
2019-02-28T23:37:26.123Z,99.40
2019-02-28T23:39:53.574Z,99.20
2019-02-28T23:42:21.202Z,98.80
2019-02-28T23:44:48.562Z,98.80
2019-02-28T23:47:15.785Z,98.70
2019-02-28T23:49:43.038Z,98.90
2019-02-28T23:52:10.301Z,98.90
2019-02-28T23:54:37.568Z,98.80
2019-02-28T23:57:04.783Z,99.00
2019-02-28T23:59:32.033Z,99.20
